Time;durP1;ratioP1;P1;durP2;ratioP2;P2;SDS_P1;SDS_P2;PMS_P1;PMS_P2;Temp;Humidity;BMP_temperature;BMP_pressure;BME280_temperature;BME280_humidity;BME280_pressure;Samples;Min_cycle;Max_cycle;Signal;HPM_P1;HPM_P2
2022/12/07 00:00:29;;;;;;;33.27;23.87;;;;;;;7.34;66.17;94900.78;5023155;28;20233;-68
2022/12/07 00:02:55;;;;;;;32.30;23.43;;;;;;;7.34;66.07;94895.53;5022292;28;20276;-68
2022/12/07 00:05:20;;;;;;;33.57;24.13;;;;;;;7.41;65.71;94899.28;5025460;28;20202;-68
2022/12/07 00:07:46;;;;;;;29.57;21.67;;;;;;;7.42;65.59;94900.94;5022323;28;20284;-68
2022/12/07 00:10:11;;;;;;;28.77;21.80;;;;;;;7.35;65.90;94896.38;5025333;28;20225;-68
2022/12/07 00:12:37;;;;;;;25.67;18.77;;;;;;;7.40;65.62;94896.78;5021095;28;20261;-68
2022/12/07 00:15:02;;;;;;;27.50;17.93;;;;;;;7.45;65.52;94892.81;5036577;28;20225;-69
2022/12/07 00:17:28;;;;;;;27.43;18.67;;;;;;;7.44;65.44;94890.34;5022072;28;20195;-68
2022/12/07 00:19:53;;;;;;;27.13;18.53;;;;;;;7.46;65.45;94889.25;5025535;28;20253;-69
2022/12/07 00:22:18;;;;;;;24.37;18.17;;;;;;;7.37;65.59;94887.44;5024972;28;20222;-69
2022/12/07 00:24:44;;;;;;;24.87;17.97;;;;;;;7.47;65.25;94890.88;5026634;28;20236;-69
2022/12/07 00:27:09;;;;;;;28.33;18.00;;;;;;;7.46;65.48;94891.88;5017930;28;20313;-69
2022/12/07 00:29:36;;;;;;;27.67;19.40;;;;;;;7.44;65.75;94890.34;5022793;28;20230;-68
2022/12/07 00:32:02;;;;;;;28.57;19.97;;;;;;;7.48;65.60;94889.94;5028944;28;20248;-69
2022/12/07 00:34:28;;;;;;;25.47;18.40;;;;;;;7.45;65.56;94887.56;5017927;28;20234;-69
2022/12/07 00:36:53;;;;;;;27.97;18.90;;;;;;;7.47;65.14;94897.91;5018145;28;20234;-68
2022/12/07 00:39:19;;;;;;;24.00;19.40;;;;;;;7.53;65.18;94899.97;5020789;28;20226;-69
2022/12/07 00:41:44;;;;;;;29.77;21.73;;;;;;;7.49;65.40;94902.06;5022271;28;20223;-68
2022/12/07 00:44:10;;;;;;;30.50;22.67;;;;;;;7.42;65.23;94889.66;5025028;28;20198;-68
2022/12/07 00:46:35;;;;;;;30.43;22.27;;;;;;;7.46;65.36;94885.81;5035584;28;20230;-69
2022/12/07 00:49:01;;;;;;;35.20;22.33;;;;;;;7.49;65.14;94888.97;5021023;28;20523;-69
2022/12/07 00:51:26;;;;;;;29.03;23.23;;;;;;;7.48;65.18;94884.72;5025805;28;20248;-69
2022/12/07 00:53:52;;;;;;;31.30;22.57;;;;;;;7.47;65.22;94887.44;5024950;28;20222;-69
2022/12/07 00:56:22;;;;;;;34.60;25.37;;;;;;;7.22;66.08;94884.38;5022851;28;20187;-68
2022/12/07 00:58:52;;;;;;;31.17;25.37;;;;;;;7.33;65.83;94878.22;5026104;28;20285;-68
2022/12/07 01:01:17;;;;;;;32.63;24.93;;;;;;;7.25;65.79;94884.13;5018000;28;20301;-68
2022/12/07 01:03:43;;;;;;;33.23;24.60;;;;;;;7.25;66.26;94878.06;5016893;28;20337;-68
2022/12/07 01:06:08;;;;;;;35.40;24.47;;;;;;;7.28;66.06;94885.63;5027010;28;20230;-68
2022/12/07 01:08:34;;;;;;;31.27;22.43;;;;;;;7.34;65.85;94886.88;5026344;28;20277;-68
2022/12/07 01:11:05;;;;;;;31.03;22.80;;;;;;;7.09;66.73;94877.75;5024634;28;20257;-68
2022/12/07 01:13:32;;;;;;;30.83;24.90;;;;;;;6.71;68.46;94884.47;5035721;28;20230;-69
2022/12/07 01:15:59;;;;;;;32.50;24.00;;;;;;;7.07;67.54;94881.31;5020741;28;20308;-69
2022/12/07 01:18:29;;;;;;;33.10;23.97;;;;;;;7.12;67.09;94874.88;5022421;28;20218;-68
2022/12/07 01:21:22;;;;;;;30.43;24.57;;;;;;;6.66;68.98;94878.84;5033884;28;20221;-68
2022/12/07 01:23:49;;;;;;;30.03;24.30;;;;;;;6.76;68.30;94872.69;5041825;28;20253;-69
2022/12/07 01:26:18;;;;;;;33.70;25.43;;;;;;;6.68;68.76;94867.28;5040478;28;20213;-68
2022/12/07 01:28:45;;;;;;;34.10;25.30;;;;;;;6.92;68.07;94866.13;5047979;28;20186;-69
2022/12/07 01:31:16;;;;;;;33.40;25.90;;;;;;;6.94;67.75;94859.00;5046647;28;20233;-69
2022/12/07 01:33:43;;;;;;;34.43;25.03;;;;;;;7.06;67.44;94863.97;5041431;28;20308;-68
2022/12/07 01:36:16;;;;;;;33.97;24.97;;;;;;;7.11;67.40;94866.19;5035835;28;20229;-69
2022/12/07 01:38:43;;;;;;;36.03;25.47;;;;;;;7.12;67.51;94859.19;5041637;28;20221;-68
2022/12/07 01:41:08;;;;;;;30.67;24.87;;;;;;;7.05;67.78;94866.72;5043957;28;20181;-69
2022/12/07 01:43:34;;;;;;;31.27;24.50;;;;;;;7.12;67.31;94865.22;5046360;28;20247;-68
2022/12/07 01:46:01;;;;;;;32.33;24.77;;;;;;;7.14;67.21;94867.72;5044914;28;20280;-68
2022/12/07 01:48:41;;;;;;;32.90;24.37;;;;;;;7.21;67.16;94879.28;5044285;28;20244;-69
2022/12/07 01:51:13;;;;;;;30.50;24.50;;;;;;;7.18;66.66;94872.53;5044390;28;20236;-69
2022/12/07 01:53:44;;;;;;;36.53;24.50;;;;;;;7.11;66.85;94863.59;5038369;28;20224;-69
2022/12/07 01:56:16;;;;;;;35.53;25.17;;;;;;;7.11;66.88;94862.75;5041275;28;20190;-69
2022/12/07 01:58:42;;;;;;;33.17;22.83;;;;;;;7.16;66.59;94857.94;5038337;28;20341;-69
2022/12/07 02:01:08;;;;;;;30.03;22.83;;;;;;;7.18;66.93;94858.63;5042208;28;20249;-69
2022/12/07 02:03:40;;;;;;;30.10;22.33;;;;;;;7.08;66.83;94845.53;5035629;28;20352;-69
2022/12/07 02:06:09;;;;;;;29.97;21.57;;;;;;;7.20;66.42;94836.63;5037226;28;20229;-69
2022/12/07 02:08:35;;;;;;;35.70;23.70;;;;;;;7.17;66.88;94843.91;5052902;28;20260;-68
2022/12/07 02:11:03;;;;;;;32.80;23.10;;;;;;;7.12;67.17;94844.31;5048975;28;20237;-69
2022/12/07 02:13:32;;;;;;;37.17;23.73;;;;;;;7.09;67.31;94847.19;5043183;28;20224;-69
2022/12/07 02:16:19;;;;;;;33.80;24.73;;;;;;;7.06;67.49;94856.13;5047087;28;20217;-69
2022/12/07 02:18:47;;;;;;;32.77;24.70;;;;;;;7.17;67.02;94855.19;5047682;28;20244;-69
2022/12/07 02:21:29;;;;;;;35.30;24.17;;;;;;;7.13;66.94;94848.56;5045554;28;20722;-68
2022/12/07 02:24:23;;;;;;;33.53;24.43;;;;;;;7.25;66.68;94850.13;5060641;28;20229;-69
2022/12/07 02:27:07;;;;;;;37.73;26.50;;;;;;;7.23;66.51;94849.41;5045828;28;20233;-69
2022/12/07 02:29:39;;;;;;;37.73;27.03;;;;;;;7.15;67.37;94848.44;5043174;28;20224;-69
2022/12/07 02:32:21;;;;;;;36.23;26.83;;;;;;;7.11;67.49;94839.19;5053882;28;20240;-68
2022/12/07 02:35:02;;;;;;;36.03;26.37;;;;;;;7.14;67.35;94828.50;5051124;28;20280;-67
2022/12/07 02:37:39;;;;;;;36.83;26.90;;;;;;;7.22;67.00;94833.88;5039300;28;20193;-68
2022/12/07 02:40:16;;;;;;;36.07;26.07;;;;;;;7.23;66.89;94832.91;5047426;28;20217;-69
2022/12/07 02:42:51;;;;;;;28.80;23.40;;;;;;;7.14;66.98;94829.31;5032213;28;20216;-69
2022/12/07 02:45:21;;;;;;;39.77;26.17;;;;;;;7.15;67.18;94840.59;5043511;28;20225;-69
2022/12/07 02:47:51;;;;;;;39.77;27.90;;;;;;;7.13;67.17;94837.28;5046903;28;20253;-69
2022/12/07 02:50:20;;;;;;;38.13;27.30;;;;;;;7.02;67.71;94836.44;5046594;28;20236;-68
2022/12/07 02:52:45;;;;;;;35.87;28.27;;;;;;;7.13;67.40;94847.75;5044041;28;20220;-69
2022/12/07 02:55:12;;;;;;;38.07;29.20;;;;;;;6.97;67.64;94837.81;5048523;28;20226;-69
2022/12/07 02:57:47;;;;;;;38.63;27.83;;;;;;;7.00;67.59;94833.16;5044817;28;20229;-69
2022/12/07 03:00:19;;;;;;;41.67;28.83;;;;;;;6.97;68.10;94827.34;5050012;28;20213;-69
2022/12/07 03:03:10;;;;;;;38.23;28.37;;;;;;;7.02;67.64;94825.97;5050089;28;20253;-69
2022/12/07 03:05:59;;;;;;;39.73;27.43;;;;;;;6.99;67.81;94825.44;5043386;28;20237;-69
2022/12/07 03:08:24;;;;;;;36.40;26.20;;;;;;;6.98;67.89;94819.38;5048653;28;20229;-68
2022/12/07 03:11:43;;;;;;;38.80;25.70;;;;;;;6.95;67.58;94813.56;5050298;28;20200;-68
2022/12/07 03:14:26;;;;;;;38.83;27.20;;;;;;;6.83;68.17;94808.47;4991707;28;20235;-69
2022/12/07 03:17:06;;;;;;;40.07;27.60;;;;;;;6.76;68.27;94804.75;4989330;28;20262;-69
2022/12/07 03:19:33;;;;;;;37.60;27.80;;;;;;;6.86;67.76;94810.00;4988739;28;20210;-69
2022/12/07 03:22:07;;;;;;;41.47;27.30;;;;;;;6.85;67.54;94814.41;4981495;28;20235;-69
2022/12/07 03:24:42;;;;;;;40.40;28.23;;;;;;;6.81;67.83;94813.00;4992717;28;20349;-69
2022/12/07 03:27:15;;;;;;;39.13;27.77;;;;;;;6.80;67.86;94815.75;4997961;28;20230;-69
2022/12/07 03:29:48;;;;;;;41.50;27.93;;;;;;;6.76;67.79;94809.13;4985281;28;20325;-68
2022/12/07 03:32:29;;;;;;;38.77;27.53;;;;;;;6.85;67.66;94814.41;4991663;28;20363;-68
2022/12/07 03:35:12;;;;;;;36.80;27.93;;;;;;;6.59;68.66;94814.03;4984812;28;20198;-68
2022/12/07 03:37:53;;;;;;;40.40;29.13;;;;;;;6.54;68.95;94818.84;4986814;28;20273;-68
2022/12/07 03:40:34;;;;;;;39.40;29.70;;;;;;;6.59;69.12;94819.25;5003429;28;20239;-68
2022/12/07 03:43:01;;;;;;;40.33;30.07;;;;;;;6.60;69.05;94818.31;4988701;28;20234;-68
2022/12/07 03:46:05;;;;;;;40.03;30.23;;;;;;;6.68;68.71;94815.03;5036066;28;20225;-68
2022/12/07 03:48:46;;;;;;;37.50;28.27;;;;;;;6.68;68.57;94811.59;5040777;28;20221;-68
2022/12/07 03:51:25;;;;;;;35.13;26.60;;;;;;;6.68;68.47;94812.41;5035591;28;20225;-69
2022/12/07 03:53:59;;;;;;;36.87;28.13;;;;;;;6.46;68.69;94816.06;5046615;28;20552;-69
2022/12/07 03:56:27;;;;;;;35.30;28.03;;;;;;;6.48;69.09;94806.31;5033261;28;20276;-69
2022/12/07 03:58:53;;;;;;;39.90;28.17;;;;;;;6.68;68.90;94808.97;5024862;28;20190;-69
2022/12/07 04:01:19;;;;;;;38.83;28.47;;;;;;;6.69;68.20;94805.41;5048134;28;20189;-69
2022/12/07 04:03:44;;;;;;;37.37;28.77;;;;;;;6.58;68.52;94801.94;5046351;28;20222;-71
2022/12/07 04:06:10;;;;;;;34.13;28.70;;;;;;;6.42;69.03;94803.41;5040867;28;20230;-68
2022/12/07 04:08:36;;;;;;;39.97;29.37;;;;;;;6.52;68.89;94794.66;5043370;28;20249;-70
2022/12/07 04:11:02;;;;;;;35.33;27.50;;;;;;;6.58;68.94;94795.91;5046689;28;20283;-70
2022/12/07 04:13:28;;;;;;;37.70;28.37;;;;;;;6.58;68.50;94801.94;5042914;28;20189;-70
2022/12/07 04:15:53;;;;;;;35.73;27.87;;;;;;;6.58;68.73;94801.13;5021892;28;20279;-70
2022/12/07 04:18:18;;;;;;;35.87;29.30;;;;;;;6.61;68.49;94800.84;5020904;28;20230;-70
2022/12/07 04:20:46;;;;;;;36.37;27.60;;;;;;;6.59;68.25;94794.94;5025472;28;20230;-70
2022/12/07 04:23:11;;;;;;;39.20;27.53;;;;;;;6.57;68.64;94799.44;5022571;28;20225;-70
2022/12/07 04:25:36;;;;;;;39.50;29.87;;;;;;;6.60;68.21;94794.81;5025966;28;20214;-70
2022/12/07 04:28:02;;;;;;;37.00;28.57;;;;;;;6.53;67.99;94811.97;5042092;28;20649;-70
2022/12/07 04:30:27;;;;;;;39.33;29.60;;;;;;;6.51;68.69;94800.00;5026633;28;20234;-70
2022/12/07 04:32:53;;;;;;;33.57;27.73;;;;;;;6.48;68.79;94798.47;5016939;28;20641;-70
2022/12/07 04:35:18;;;;;;;38.73;28.30;;;;;;;6.65;68.35;94806.63;5015516;28;20284;-70
2022/12/07 04:37:44;;;;;;;38.53;28.63;;;;;;;6.54;68.18;94802.34;5026842;28;20214;-70
2022/12/07 04:40:10;;;;;;;37.07;28.07;;;;;;;6.56;68.37;94797.81;5036310;28;20213;-69
2022/12/07 04:42:37;;;;;;;38.67;28.20;;;;;;;6.51;68.27;94806.03;5035035;28;20229;-69
2022/12/07 04:45:03;;;;;;;39.90;27.33;;;;;;;6.45;68.48;94803.97;5032679;28;20256;-68
2022/12/07 04:47:28;;;;;;;37.10;28.63;;;;;;;6.40;68.71;94812.19;5033703;28;20214;-68
2022/12/07 04:49:54;;;;;;;32.77;26.97;;;;;;;6.43;68.53;94816.31;5022693;28;20195;-68
2022/12/07 04:52:19;;;;;;;39.10;28.03;;;;;;;6.44;68.42;94820.56;5028221;28;20205;-68
2022/12/07 04:54:44;;;;;;;38.07;27.83;;;;;;;6.39;68.36;94810.53;5041754;28;20221;-68
2022/12/07 04:57:10;;;;;;;36.73;27.67;;;;;;;6.37;68.62;94814.25;5030707;28;20237;-68
2022/12/07 04:59:35;;;;;;;37.77;26.73;;;;;;;6.42;68.32;94808.63;5024209;28;20221;-68
2022/12/07 05:02:01;;;;;;;38.07;28.70;;;;;;;6.36;68.35;94813.41;5032652;28;20210;-70
2022/12/07 05:04:26;;;;;;;41.27;28.10;;;;;;;6.22;68.66;94812.94;5025123;28;20182;-68
2022/12/07 05:06:52;;;;;;;40.93;27.33;;;;;;;6.26;68.91;94803.91;5030888;28;20222;-69
2022/12/07 05:09:17;;;;;;;41.10;30.17;;;;;;;6.33;69.07;94818.06;5025202;28;20226;-67
2022/12/07 05:11:43;;;;;;;42.93;30.33;;;;;;;6.19;69.58;94817.44;5026996;28;20220;-67
2022/12/07 05:14:18;;;;;;;36.40;27.47;;;;;;;6.39;68.90;94815.75;5029418;28;20191;-68
2022/12/07 05:16:46;;;;;;;38.20;29.47;;;;;;;6.33;68.75;94820.66;5040590;28;20189;-67
2022/12/07 05:19:12;;;;;;;34.30;27.53;;;;;;;6.36;68.44;94823.00;5042856;28;20221;-68
2022/12/07 05:21:38;;;;;;;35.40;27.70;;;;;;;6.26;69.01;94822.16;5045126;28;20236;-69
2022/12/07 05:24:05;;;;;;;36.90;27.90;;;;;;;6.30;68.63;94813.91;5042535;28;20217;-67
2022/12/07 05:26:31;;;;;;;39.10;28.47;;;;;;;6.07;69.23;94805.44;5042955;28;20297;-68
2022/12/07 05:28:57;;;;;;;32.97;27.20;;;;;;;6.21;69.13;94809.50;5043138;28;20280;-68
2022/12/07 05:31:24;;;;;;;39.47;28.23;;;;;;;5.82;70.12;94818.84;5040402;28;20205;-69
2022/12/07 05:33:49;;;;;;;41.53;27.93;;;;;;;5.81;70.91;94810.19;5039076;28;20256;-68
2022/12/07 05:36:15;;;;;;;38.70;28.00;;;;;;;6.04;70.12;94818.75;5038213;28;20313;-69
2022/12/07 05:38:41;;;;;;;40.13;26.60;;;;;;;6.17;69.97;94824.59;5041426;28;20225;-68
2022/12/07 05:42:11;;;;;;;37.23;27.73;;;;;;;6.02;70.04;94806.78;5038618;28;20190;-67
2022/12/07 05:43:53;;;;;;;39.23;28.30;;;;;;;6.08;69.87;94812.31;5030185;28;20196;-68
2022/12/07 05:46:18;;;;;;;40.90;27.83;;;;;;;6.09;69.81;94802.69;5047363;28;20205;-69
2022/12/07 05:48:44;;;;;;;34.93;26.03;;;;;;;6.27;69.47;94808.16;5037487;28;20226;-69
2022/12/07 05:51:09;;;;;;;37.43;27.40;;;;;;;6.26;69.13;94796.06;5041866;28;20321;-70
2022/12/07 05:53:34;;;;;;;33.90;27.17;;;;;;;6.07;69.48;94802.84;5033684;28;20325;-68
2022/12/07 05:56:00;;;;;;;45.57;31.90;;;;;;;6.01;69.86;94797.28;5023302;28;20194;-67
2022/12/07 06:01:09;;;;;;;37.57;27.43;;;;;;;6.05;69.96;94802.13;5027432;28;20751;-68
2022/12/07 06:03:35;;;;;;;40.70;26.53;;;;;;;6.15;69.69;94799.59;5026942;28;20233;-69
2022/12/07 06:06:00;;;;;;;33.17;25.00;;;;;;;6.18;69.43;94800.13;5022262;28;20227;-68
2022/12/07 06:08:26;;;;;;;38.77;26.20;;;;;;;6.18;69.46;94797.53;5017468;28;20247;-69
2022/12/07 06:12:33;;;;;;;42.50;25.90;;;;;;;6.30;69.38;94802.66;5021202;28;20675;-67
2022/12/07 06:13:36;;;;;;;40.17;27.20;;;;;;;6.40;68.63;94806.13;5036971;28;20273;-68
2022/12/07 06:16:02;;;;;;;43.17;27.33;;;;;;;6.42;69.01;94795.56;5044208;28;20221;-67
2022/12/07 06:18:27;;;;;;;41.90;28.07;;;;;;;6.29;69.40;94816.69;5043606;28;20229;-68
2022/12/07 06:20:53;;;;;;;42.27;27.27;;;;;;;6.43;68.93;94812.88;5039459;28;20218;-68
2022/12/07 06:23:18;;;;;;;39.57;28.03;;;;;;;6.45;68.68;94811.81;5038187;28;20218;-68
2022/12/07 06:25:45;;;;;;;44.97;27.43;;;;;;;6.43;68.60;94808.47;5044517;28;20206;-67
2022/12/07 06:28:11;;;;;;;42.33;28.13;;;;;;;6.48;68.58;94813.31;5040386;28;20210;-68
2022/12/07 06:30:36;;;;;;;35.87;26.87;;;;;;;6.56;68.27;94814.31;5041857;28;20252;-67
2022/12/07 06:33:02;;;;;;;40.73;24.80;;;;;;;6.63;68.55;94815.44;5039268;28;20225;-67
2022/12/07 06:35:27;;;;;;;40.83;25.30;;;;;;;6.66;68.33;94821.38;5037786;28;20300;-66
2022/12/07 06:37:53;;;;;;;37.97;24.67;;;;;;;6.60;68.38;94820.09;5038986;28;20324;-67
2022/12/07 06:40:18;;;;;;;40.27;24.90;;;;;;;6.65;68.25;94817.91;5044818;28;20193;-68
2022/12/07 06:42:43;;;;;;;40.07;25.90;;;;;;;6.68;68.39;94822.84;5035990;28;20276;-67
2022/12/07 06:45:09;;;;;;;37.07;25.03;;;;;;;6.77;68.26;94826.50;5030178;28;20309;-69
2022/12/07 06:47:35;;;;;;;37.00;24.87;;;;;;;6.78;67.96;94828.94;5023469;28;20230;-69
2022/12/07 06:50:00;;;;;;;37.27;25.73;;;;;;;6.81;67.93;94833.09;5024843;28;20187;-69
2022/12/07 06:52:25;;;;;;;35.73;25.47;;;;;;;6.84;67.50;94828.44;5022512;28;20187;-69
2022/12/07 06:54:51;;;;;;;36.93;24.50;;;;;;;6.74;68.05;94827.56;5006482;28;20210;-70
2022/12/07 06:57:16;;;;;;;40.33;26.00;;;;;;;6.86;67.62;94820.44;5026308;28;20218;-69
2022/12/07 06:59:42;;;;;;;38.10;24.70;;;;;;;6.80;67.96;94831.44;5030862;28;20230;-69
2022/12/07 07:02:09;;;;;;;31.83;22.43;;;;;;;6.86;67.57;94825.66;5029560;28;20214;-69
2022/12/07 07:04:34;;;;;;;34.30;25.17;;;;;;;6.87;67.37;94827.34;5024757;28;20186;-69
2022/12/07 07:06:59;;;;;;;39.37;24.37;;;;;;;6.91;67.59;94833.94;5011116;28;20221;-69
2022/12/07 07:09:26;;;;;;;37.23;24.33;;;;;;;6.76;68.03;94830.88;5015726;28;20218;-70
2022/12/07 07:11:51;;;;;;;37.73;23.23;;;;;;;6.91;67.82;94827.91;5011765;28;20245;-70
2022/12/07 07:14:18;;;;;;;33.87;21.93;;;;;;;6.96;67.38;94830.94;5035103;28;20222;-70
2022/12/07 07:16:44;;;;;;;36.77;22.13;;;;;;;6.83;67.87;94834.59;5034752;28;20186;-71
2022/12/07 07:19:09;;;;;;;35.43;24.23;;;;;;;7.01;67.83;94840.03;5014911;28;20218;-71
2022/12/07 07:21:36;;;;;;;37.47;23.93;;;;;;;6.97;67.68;94830.78;5018565;28;20588;-71
2022/12/07 07:24:02;;;;;;;39.73;25.07;;;;;;;7.00;67.79;94830.53;5015816;28;20229;-71
2022/12/07 07:26:27;;;;;;;44.67;26.60;;;;;;;7.01;67.67;94826.13;5018635;28;20226;-63
2022/12/07 07:28:52;;;;;;;53.33;28.67;;;;;;;6.94;67.99;94825.00;5018567;28;20190;-64
2022/12/07 07:31:18;;;;;;;56.00;31.80;;;;;;;6.98;68.07;94837.69;5011409;28;20241;-64
2022/12/07 07:33:46;;;;;;;44.43;29.73;;;;;;;6.63;68.68;94827.69;5016793;28;20221;-64
2022/12/07 07:36:11;;;;;;;40.57;27.30;;;;;;;6.66;69.03;94839.66;5014835;28;20218;-67
2022/12/07 07:38:36;;;;;;;36.90;24.30;;;;;;;6.94;68.29;94835.47;5015189;28;20252;-67
2022/12/07 07:41:02;;;;;;;40.00;27.00;;;;;;;7.05;67.80;94841.41;5014408;28;20205;-67
2022/12/07 07:43:27;;;;;;;42.53;26.33;;;;;;;7.19;67.76;94839.34;5019990;28;20185;-66
2022/12/07 07:45:53;;;;;;;42.37;26.83;;;;;;;7.15;67.66;94840.59;5025182;28;20317;-66
2022/12/07 07:48:18;;;;;;;40.20;26.00;;;;;;;7.18;67.46;94832.47;5030945;28;20260;-70
2022/12/07 07:50:44;;;;;;;35.87;25.90;;;;;;;7.30;67.21;94834.03;5035672;28;20218;-70
2022/12/07 07:53:09;;;;;;;42.27;26.77;;;;;;;7.11;67.89;94833.97;5029753;28;20246;-67
2022/12/07 07:55:35;;;;;;;39.80;24.47;;;;;;;7.37;67.26;94835.13;5033657;28;20190;-67
2022/12/07 07:58:00;;;;;;;36.27;25.00;;;;;;;7.55;66.86;94831.81;5016648;28;20226;-67
2022/12/07 08:00:26;;;;;;;36.83;24.60;;;;;;;7.51;66.64;94833.88;5019517;28;20225;-68
2022/12/07 08:02:51;;;;;;;35.80;24.80;;;;;;;7.52;66.75;94832.94;5011218;28;20226;-68
2022/12/07 08:05:17;;;;;;;37.00;22.93;;;;;;;7.67;66.40;94831.56;5012185;28;20366;-68
2022/12/07 08:07:43;;;;;;;36.00;22.70;;;;;;;7.71;65.78;94832.09;5014192;28;20234;-68
2022/12/07 08:10:11;;;;;;;36.50;23.33;;;;;;;7.65;66.21;94833.47;5035554;28;20226;-68
2022/12/07 08:15:30;;;;;;;28.77;21.50;;;;;;;7.72;65.42;94837.19;5018611;28;20225;-67
2022/12/07 08:17:55;;;;;;;31.33;22.27;;;;;;;7.61;65.38;94831.25;5023595;28;20218;-68
2022/12/07 08:20:21;;;;;;;33.73;22.93;;;;;;;7.32;66.29;94832.06;5029553;28;20221;-67
2022/12/07 08:22:47;;;;;;;34.03;22.47;;;;;;;7.31;66.35;94827.81;5027886;28;20228;-68
2022/12/07 08:25:12;;;;;;;33.77;23.30;;;;;;;7.41;66.35;94826.03;5029246;28;20218;-67
2022/12/07 08:27:38;;;;;;;36.63;24.33;;;;;;;7.48;66.19;94832.38;5028323;28;20297;-67
2022/12/07 08:30:04;;;;;;;39.13;26.03;;;;;;;7.41;66.56;94828.66;5025423;28;20226;-69
2022/12/07 08:32:29;;;;;;;38.83;26.17;;;;;;;7.40;66.59;94826.97;5025787;28;20215;-69
2022/12/07 08:34:55;;;;;;;44.77;24.47;;;;;;;7.20;67.10;94828.78;5021304;28;20258;-67
2022/12/07 08:37:20;;;;;;;38.37;24.37;;;;;;;7.37;66.79;94829.88;5029083;28;20613;-69
2022/12/07 08:39:46;;;;;;;37.57;25.50;;;;;;;7.39;67.03;94829.75;5026716;28;20222;-68
2022/12/07 08:42:11;;;;;;;34.43;24.27;;;;;;;7.53;66.32;94831.13;5040448;28;20218;-69
2022/12/07 08:44:36;;;;;;;35.30;24.33;;;;;;;7.35;66.81;94826.59;5045343;28;20215;-69
2022/12/07 08:47:06;;;;;;;37.17;24.13;;;;;;;7.44;66.25;94825.75;5041151;28;20220;-69
2022/12/07 08:49:42;;;;;;;35.17;24.53;;;;;;;7.48;66.67;94819.31;5041826;28;20182;-68
2022/12/07 08:52:07;;;;;;;35.07;22.97;;;;;;;7.47;66.77;94820.25;5045113;28;20329;-68
2022/12/07 08:54:36;;;;;;;35.73;24.37;;;;;;;7.58;66.71;94813.22;5045783;28;20322;-69
2022/12/07 08:57:03;;;;;;;34.37;24.27;;;;;;;7.48;66.92;94813.22;5045434;28;20264;-70
2022/12/07 08:59:28;;;;;;;34.90;23.67;;;;;;;7.65;66.70;94811.72;5042380;28;20233;-69
2022/12/07 09:01:54;;;;;;;38.37;24.53;;;;;;;7.66;66.24;94808.13;5048854;28;20184;-69
2022/12/07 09:04:20;;;;;;;38.23;24.67;;;;;;;7.65;66.35;94804.69;5044827;28;20192;-68
2022/12/07 09:06:46;;;;;;;37.53;24.60;;;;;;;7.64;66.26;94800.41;5037828;28;20236;-68
2022/12/07 09:09:12;;;;;;;37.50;25.67;;;;;;;7.46;66.76;94802.91;5043279;28;20230;-68
2022/12/07 09:11:39;;;;;;;41.70;26.10;;;;;;;7.56;66.62;94815.16;5026352;28;20209;-68
2022/12/07 09:14:04;;;;;;;39.37;26.20;;;;;;;7.68;66.60;94811.44;5043403;28;20204;-71
2022/12/07 09:16:30;;;;;;;42.07;26.77;;;;;;;7.72;65.99;94797.09;5042821;28;20268;-73
2022/12/07 09:18:55;;;;;;;40.63;26.90;;;;;;;7.72;66.15;94790.09;5041145;28;20217;-67
2022/12/07 09:21:21;;;;;;;39.67;28.00;;;;;;;7.87;65.98;94781.78;5044108;28;20276;-69
2022/12/07 09:23:46;;;;;;;36.33;27.27;;;;;;;7.84;66.21;94769.81;5043264;28;20233;-68
2022/12/07 09:26:11;;;;;;;38.17;27.57;;;;;;;7.95;65.76;94784.53;5040866;28;20269;-68
2022/12/07 09:28:37;;;;;;;35.20;25.87;;;;;;;8.05;65.26;94784.50;5034308;28;20182;-69
2022/12/07 09:31:04;;;;;;;42.20;28.87;;;;;;;8.03;65.26;94789.06;5046251;28;20294;-67
2022/12/07 09:33:29;;;;;;;39.43;27.17;;;;;;;8.07;65.28;94786.03;5040747;28;20205;-70
2022/12/07 09:35:55;;;;;;;38.80;26.77;;;;;;;8.11;65.02;94782.13;5045804;28;20237;-68
2022/12/07 09:38:20;;;;;;;46.97;27.47;;;;;;;8.29;64.60;94763.91;5041132;28;20275;-68
2022/12/07 09:40:47;;;;;;;37.93;28.50;;;;;;;8.38;64.21;94759.56;5040933;28;20197;-68
2022/12/07 09:43:19;;;;;;;40.07;27.60;;;;;;;8.49;63.72;94759.41;5039115;28;20225;-68
2022/12/07 09:45:47;;;;;;;44.07;29.13;;;;;;;8.48;63.86;94764.81;5038626;28;20217;-68
2022/12/07 09:48:29;;;;;;;40.37;27.33;;;;;;;8.52;63.58;94763.53;5043338;28;20224;-69
2022/12/07 09:50:57;;;;;;;35.77;26.53;;;;;;;8.66;63.24;94760.44;5060345;28;20270;-70
2022/12/07 09:53:29;;;;;;;38.63;26.47;;;;;;;8.67;63.11;94753.41;5042207;28;20218;-70
2022/12/07 09:55:55;;;;;;;38.57;26.70;;;;;;;8.70;63.08;94759.16;5041580;28;20206;-70
2022/12/07 09:58:24;;;;;;;38.13;26.30;;;;;;;8.71;63.27;94758.19;5043111;28;20283;-71
2022/12/07 10:01:18;;;;;;;40.10;26.63;;;;;;;8.80;62.87;94752.09;5039964;28;20217;-69
2022/12/07 10:03:50;;;;;;;35.77;26.17;;;;;;;8.82;62.76;94744.91;5039459;28;20328;-69
2022/12/07 10:06:15;;;;;;;39.13;26.43;;;;;;;8.81;62.88;94745.84;5043921;28;20244;-69
2022/12/07 10:08:43;;;;;;;36.57;26.03;;;;;;;8.87;62.69;94748.84;5040608;28;20259;-69
2022/12/07 10:11:10;;;;;;;36.87;26.73;;;;;;;8.99;62.36;94731.94;5038145;28;20229;-69
2022/12/07 10:13:40;;;;;;;34.57;25.00;;;;;;;9.07;62.25;94732.03;5044011;28;20186;-69
2022/12/07 10:16:24;;;;;;;38.13;25.73;;;;;;;9.02;61.98;94729.03;5040692;28;20317;-67
2022/12/07 10:18:50;;;;;;;35.40;25.43;;;;;;;9.31;61.26;94727.97;5041594;28;20264;-67
2022/12/07 10:21:24;;;;;;;32.20;25.03;;;;;;;9.47;60.66;94726.31;5034914;28;20214;-67
2022/12/07 10:24:03;;;;;;;37.77;25.40;;;;;;;9.53;60.46;94726.69;5038426;28;20268;-68
2022/12/07 10:26:30;;;;;;;36.93;26.87;;;;;;;9.67;60.05;94726.94;5033960;28;20218;-67
2022/12/07 10:29:00;;;;;;;39.93;26.50;;;;;;;9.69;59.87;94714.50;5046869;28;20197;-67
2022/12/07 10:31:25;;;;;;;36.40;25.73;;;;;;;9.63;59.70;94720.34;5046936;28;20182;-69
2022/12/07 10:33:56;;;;;;;34.43;26.07;;;;;;;9.45;60.10;94698.56;5048104;28;20243;-67
2022/12/07 10:36:38;;;;;;;34.37;24.97;;;;;;;9.48;60.18;94701.69;5045037;28;20230;-67
2022/12/07 10:39:04;;;;;;;31.67;24.97;;;;;;;9.50;60.41;94698.94;5045573;28;20237;-67
2022/12/07 10:41:30;;;;;;;40.80;25.17;;;;;;;9.51;60.43;94700.56;5044273;28;20287;-68
2022/12/07 10:43:57;;;;;;;35.47;24.73;;;;;;;9.48;60.17;94699.06;5038198;28;20177;-66
2022/12/07 10:47:13;;;;;;;34.40;25.33;;;;;;;9.36;60.86;94687.19;5063885;28;20215;-67
2022/12/07 10:49:57;;;;;;;35.73;23.63;;;;;;;9.36;60.90;94689.81;5056104;28;20340;-67
2022/12/07 10:52:34;;;;;;;30.13;23.17;;;;;;;9.39;60.92;94688.69;5031775;28;20220;-68
2022/12/07 10:55:04;;;;;;;33.50;23.00;;;;;;;9.43;60.68;94682.97;5033660;28;20309;-68
2022/12/07 10:57:52;;;;;;;38.40;22.63;;;;;;;9.47;60.70;94675.63;5029758;28;20221;-69
2022/12/07 11:00:23;;;;;;;32.33;21.23;;;;;;;9.54;60.34;94676.63;5026498;28;20226;-68
2022/12/07 11:02:57;;;;;;;38.40;24.23;;;;;;;9.45;60.83;94659.19;5019217;28;20233;-68
2022/12/07 11:05:35;;;;;;;31.50;22.07;;;;;;;9.35;61.22;94656.66;5032897;28;20226;-68
2022/12/07 11:08:14;;;;;;;33.77;23.07;;;;;;;9.39;61.47;94657.19;5033675;28;20276;-67
2022/12/07 11:10:42;;;;;;;33.53;22.73;;;;;;;9.54;60.83;94666.13;5045270;28;20241;-67
2022/12/07 11:13:19;;;;;;;36.60;23.90;;;;;;;9.58;60.79;94662.25;5046721;28;20236;-67
2022/12/07 11:15:54;;;;;;;36.63;24.60;;;;;;;9.78;59.89;94659.41;5024521;28;20229;-68
2022/12/07 11:18:29;;;;;;;35.10;23.93;;;;;;;9.49;60.51;94663.19;5024487;28;20225;-68
2022/12/07 11:20:57;;;;;;;33.87;22.57;;;;;;;9.63;60.20;94659.97;5023264;28;20312;-68
2022/12/07 11:23:34;;;;;;;30.97;22.17;;;;;;;9.73;59.70;94649.38;5038681;28;20227;-68
2022/12/07 11:26:11;;;;;;;28.60;21.10;;;;;;;9.77;59.21;94649.88;5026623;28;20315;-67
2022/12/07 11:29:07;;;;;;;41.43;21.97;;;;;;;9.87;59.28;94647.97;5029104;28;20179;-68
2022/12/07 11:31:45;;;;;;;30.10;20.37;;;;;;;10.06;58.31;94629.34;5035804;28;20552;-68
2022/12/07 11:34:13;;;;;;;33.80;20.03;;;;;;;10.21;57.74;94629.59;5021759;28;20221;-68
2022/12/07 11:36:50;;;;;;;30.73;20.73;;;;;;;10.21;57.67;94621.69;5025183;28;20222;-70
2022/12/07 11:39:18;;;;;;;27.00;18.93;;;;;;;10.07;57.66;94620.47;5012707;28;20260;-64